Time;durP1;ratioP1;P1;durP2;ratioP2;P2;SDS_P1;SDS_P2;PMS_P1;PMS_P2;Temp;Humidity;BMP_temperature;BMP_pressure;BME280_temperature;BME280_humidity;BME280_pressure;Samples;Min_cycle;Max_cycle;Signal;HPM_P1;HPM_P2
2021/11/10 00:02:02;;;;;;;4.90;4.40;;;;;;;;;;5050529;28;20382;-69
2021/11/10 00:04:31;;;;;;;5.93;4.70;;;;;;;;;;5062531;28;20390;-69
2021/11/10 00:07:01;;;;;;;5.68;4.75;;;;;;;;;;5066604;28;20415;-69
2021/11/10 00:09:29;;;;;;;5.30;4.50;;;;;;;;;;5062932;28;20740;-69
2021/11/10 00:11:58;;;;;;;5.72;4.63;;;;;;;;;;5066615;28;20392;-69
2021/11/10 00:14:28;;;;;;;4.95;4.45;;;;;;;;;;5039549;28;20390;-69
2021/11/10 00:16:58;;;;;;;4.97;4.47;;;;;;;;;;5067914;28;20723;-69
2021/11/10 00:19:28;;;;;;;5.07;4.43;;;;;;;;;;5063653;28;20409;-70
2021/11/10 00:21:59;;;;;;;5.10;4.60;;;;;;;;;;5058615;28;20416;-70
2021/11/10 00:24:29;;;;;;;5.47;4.30;;;;;;;;;;5061967;28;20485;-70
2021/11/10 00:27:01;;;;;;;5.90;4.55;;;;;;;;;;5060319;28;20426;-69
2021/11/10 00:29:31;;;;;;;5.78;4.65;;;;;;;;;;5049445;28;20639;-68
2021/11/10 00:32:05;;;;;;;5.40;4.57;;;;;;;;;;5068666;28;20394;-68
2021/11/10 00:34:34;;;;;;;21.40;5.22;;;;;;;;;;5062882;28;20417;-68
2021/11/10 00:37:03;;;;;;;5.63;4.43;;;;;;;;;;5070269;28;20711;-69
2021/11/10 00:39:34;;;;;;;5.20;4.50;;;;;;;;;;5070374;28;20401;-68
2021/11/10 00:42:02;;;;;;;4.73;4.30;;;;;;;;;;5059761;28;20386;-68
2021/11/10 00:44:30;;;;;;;4.55;4.05;;;;;;;;;;5068356;28;20409;-68
2021/11/10 00:46:57;;;;;;;4.72;4.20;;;;;;;;;;5077263;28;20525;-69
2021/11/10 00:49:27;;;;;;;7.13;4.20;;;;;;;;;;5073759;28;20406;-69
2021/11/10 00:51:59;;;;;;;5.18;4.18;;;;;;;;;;5073184;28;20396;-69
2021/11/10 00:54:32;;;;;;;5.10;4.18;;;;;;;;;;5065590;28;20412;-69
2021/11/10 00:57:01;;;;;;;5.28;4.53;;;;;;;;;;5068574;28;20432;-69
2021/11/10 00:59:31;;;;;;;4.70;4.13;;;;;;;;;;5068981;28;20392;-69
2021/11/10 01:02:01;;;;;;;4.70;4.25;;;;;;;;;;5070570;28;20398;-69
2021/11/10 01:04:33;;;;;;;4.97;4.45;;;;;;;;;;5064372;28;20735;-69
2021/11/10 01:07:05;;;;;;;4.70;3.97;;;;;;;;;;5071276;28;20898;-69
2021/11/10 01:09:41;;;;;;;5.00;4.07;;;;;;;;;;5067232;28;20414;-68
2021/11/10 01:12:16;;;;;;;5.03;4.40;;;;;;;;;;5052594;28;20402;-68
2021/11/10 01:14:47;;;;;;;4.45;3.95;;;;;;;;;;5071609;28;20819;-68
2021/11/10 01:17:20;;;;;;;4.80;4.30;;;;;;;;;;5071443;28;20418;-68
2021/11/10 01:19:49;;;;;;;4.93;4.10;;;;;;;;;;5073230;28;20402;-69
2021/11/10 01:22:18;;;;;;;5.20;4.35;;;;;;;;;;5046434;28;20433;-69
2021/11/10 01:24:49;;;;;;;5.15;3.95;;;;;;;;;;5071947;28;20521;-69
2021/11/10 01:27:17;;;;;;;4.50;4.10;;;;;;;;;;5052515;28;20463;-69
2021/11/10 01:29:47;;;;;;;5.17;3.90;;;;;;;;;;5070085;28;21107;-69
2021/11/10 01:32:16;;;;;;;4.63;3.90;;;;;;;;;;5071786;28;20571;-69
2021/11/10 01:34:45;;;;;;;5.13;4.63;;;;;;;;;;5071131;28;20386;-68
2021/11/10 01:37:15;;;;;;;5.67;4.47;;;;;;;;;;5068857;28;20390;-69
2021/11/10 01:39:43;;;;;;;4.53;3.80;;;;;;;;;;5072076;28;20431;-68
2021/11/10 01:42:13;;;;;;;5.13;4.03;;;;;;;;;;5068398;28;20409;-69
2021/11/10 01:44:42;;;;;;;4.33;3.87;;;;;;;;;;5070188;28;21063;-69
2021/11/10 01:47:13;;;;;;;4.68;4.18;;;;;;;;;;5069273;28;20402;-69
2021/11/10 01:49:45;;;;;;;4.50;3.88;;;;;;;;;;5069886;28;20411;-69
2021/11/10 01:52:16;;;;;;;4.97;4.05;;;;;;;;;;5066826;28;20390;-68
2021/11/10 01:54:45;;;;;;;4.63;4.20;;;;;;;;;;5068410;28;20429;-69
2021/11/10 01:57:12;;;;;;;3.95;3.55;;;;;;;;;;5031822;28;20438;-69
2021/11/10 01:59:46;;;;;;;6.43;3.78;;;;;;;;;;5076020;28;20419;-68
2021/11/10 02:02:27;;;;;;;4.97;3.90;;;;;;;;;;5068924;28;20382;-68
2021/11/10 02:04:59;;;;;;;5.10;4.60;;;;;;;;;;5069827;28;20461;-69
2021/11/10 02:07:30;;;;;;;4.55;4.10;;;;;;;;;;5052021;28;20785;-69
2021/11/10 02:09:59;;;;;;;5.20;4.43;;;;;;;;;;5060219;28;20737;-69
2021/11/10 02:12:42;;;;;;;4.75;4.22;;;;;;;;;;5066706;28;20432;-69
2021/11/10 02:15:18;;;;;;;3.97;3.50;;;;;;;;;;5052167;28;20464;-69
2021/11/10 02:17:54;;;;;;;3.75;3.28;;;;;;;;;;5068252;28;20384;-69
2021/11/10 02:20:32;;;;;;;4.20;3.75;;;;;;;;;;5038927;28;20423;-70
2021/11/10 02:23:09;;;;;;;4.57;3.70;;;;;;;;;;5066441;28;20868;-69
2021/11/10 02:25:39;;;;;;;5.55;4.10;;;;;;;;;;5050660;28;20394;-69
2021/11/10 02:28:10;;;;;;;4.15;3.63;;;;;;;;;;5068081;28;20394;-69
2021/11/10 02:30:42;;;;;;;4.28;3.83;;;;;;;;;;5062735;28;20413;-69
2021/11/10 02:33:13;;;;;;;5.00;3.70;;;;;;;;;;5065482;28;20406;-69
2021/11/10 02:35:43;;;;;;;4.20;3.80;;;;;;;;;;5068602;28;20408;-68
2021/11/10 02:38:17;;;;;;;4.40;3.78;;;;;;;;;;5066963;28;20414;-69
2021/11/10 02:40:48;;;;;;;4.05;3.47;;;;;;;;;;5063810;28;20774;-69
2021/11/10 02:43:18;;;;;;;4.07;3.67;;;;;;;;;;5053081;28;20401;-69
2021/11/10 02:45:50;;;;;;;3.90;3.50;;;;;;;;;;5048400;28;20400;-69
2021/11/10 02:48:20;;;;;;;4.15;3.75;;;;;;;;;;5061424;28;20449;-69
2021/11/10 02:50:52;;;;;;;4.55;3.60;;;;;;;;;;5053096;28;20423;-69
2021/11/10 02:53:22;;;;;;;3.90;3.50;;;;;;;;;;5068108;28;20979;-69
2021/11/10 02:55:53;;;;;;;3.97;3.40;;;;;;;;;;5071650;28;20867;-69
2021/11/10 02:58:25;;;;;;;4.15;3.50;;;;;;;;;;5059543;28;20406;-68
2021/11/10 03:00:55;;;;;;;4.03;3.60;;;;;;;;;;5065986;28;20414;-69
2021/11/10 03:03:24;;;;;;;4.20;3.60;;;;;;;;;;5065327;28;20861;-68
2021/11/10 03:05:57;;;;;;;4.57;4.17;;;;;;;;;;5070560;28;20483;-69
2021/11/10 03:08:27;;;;;;;4.72;4.20;;;;;;;;;;5064414;28;20395;-69
2021/11/10 03:10:55;;;;;;;4.50;4.10;;;;;;;;;;5068001;28;20397;-69
2021/11/10 03:13:26;;;;;;;4.10;3.50;;;;;;;;;;5077788;28;20405;-70
2021/11/10 03:15:55;;;;;;;4.13;3.58;;;;;;;;;;5051212;28;20405;-70
2021/11/10 03:18:28;;;;;;;4.40;3.60;;;;;;;;;;5062058;28;20410;-70
2021/11/10 03:20:56;;;;;;;4.27;3.80;;;;;;;;;;5050589;28;20750;-69
2021/11/10 03:23:26;;;;;;;5.78;3.83;;;;;;;;;;5066227;28;20398;-70
2021/11/10 03:25:55;;;;;;;4.05;3.65;;;;;;;;;;5060632;28;20390;-69
2021/11/10 03:28:24;;;;;;;4.72;3.72;;;;;;;;;;5062687;28;20390;-69
2021/11/10 03:30:54;;;;;;;4.15;3.70;;;;;;;;;;5067075;28;20731;-70
2021/11/10 03:33:26;;;;;;;3.97;3.58;;;;;;;;;;5066607;28;20398;-69
2021/11/10 03:35:56;;;;;;;3.80;3.40;;;;;;;;;;5070421;28;20394;-69
2021/11/10 03:38:28;;;;;;;4.13;3.55;;;;;;;;;;5078812;28;20399;-68
2021/11/10 03:41:00;;;;;;;4.40;3.70;;;;;;;;;;5069285;28;20406;-70
2021/11/10 03:43:32;;;;;;;3.83;3.42;;;;;;;;;;5066449;28;20895;-69
2021/11/10 03:46:02;;;;;;;4.07;3.67;;;;;;;;;;5066254;28;20400;-69
2021/11/10 03:48:31;;;;;;;3.88;3.50;;;;;;;;;;5064705;28;20398;-69
2021/11/10 03:51:00;;;;;;;4.22;3.53;;;;;;;;;;5068399;28;20619;-70
2021/11/10 03:53:27;;;;;;;4.28;3.40;;;;;;;;;;5063411;28;20855;-69
2021/11/10 03:55:56;;;;;;;3.67;3.30;;;;;;;;;;5066012;28;20487;-69
2021/11/10 03:58:27;;;;;;;3.60;3.17;;;;;;;;;;5063171;28;20398;-69
2021/11/10 04:00:55;;;;;;;3.40;3.10;;;;;;;;;;5081589;28;20393;-69
2021/11/10 04:03:30;;;;;;;3.45;2.95;;;;;;;;;;5066749;28;20411;-69
2021/11/10 04:05:59;;;;;;;3.67;3.03;;;;;;;;;;5069116;28;20910;-70
2021/11/10 04:08:26;;;;;;;16.33;3.80;;;;;;;;;;5056069;28;20407;-69
2021/11/10 04:10:55;;;;;;;3.75;2.95;;;;;;;;;;5049627;28;20415;-69
2021/11/10 04:13:24;;;;;;;3.72;3.42;;;;;;;;;;5048463;28;20853;-69
2021/11/10 04:15:55;;;;;;;3.83;3.53;;;;;;;;;;5040699;28;20436;-69
2021/11/10 04:18:32;;;;;;;3.67;3.30;;;;;;;;;;5039921;28;20404;-69
2021/11/10 04:21:08;;;;;;;3.28;2.97;;;;;;;;;;5046798;28;20413;-69
2021/11/10 04:23:39;;;;;;;4.00;3.40;;;;;;;;;;5049087;28;20833;-70
2021/11/10 04:26:11;;;;;;;3.72;3.17;;;;;;;;;;5055854;28;20408;-70
2021/11/10 04:28:41;;;;;;;3.83;3.53;;;;;;;;;;5044599;28;20430;-69
2021/11/10 04:31:13;;;;;;;3.65;3.22;;;;;;;;;;5047546;28;20884;-69
2021/11/10 04:33:45;;;;;;;4.05;3.65;;;;;;;;;;5044417;28;20395;-70
2021/11/10 04:36:16;;;;;;;3.92;3.50;;;;;;;;;;5046362;28;20400;-70
2021/11/10 04:38:49;;;;;;;4.18;3.88;;;;;;;;;;5048038;28;20395;-70
2021/11/10 04:41:20;;;;;;;3.90;3.50;;;;;;;;;;5063316;28;21001;-70
2021/11/10 04:43:55;;;;;;;3.73;3.33;;;;;;;;;;5045865;28;20411;-69
2021/11/10 04:46:30;;;;;;;3.95;3.28;;;;;;;;;;5050369;28;20406;-69
2021/11/10 04:49:01;;;;;;;3.60;3.30;;;;;;;;;;5047037;28;20430;-69
2021/11/10 04:51:31;;;;;;;8.90;3.60;;;;;;;;;;5060594;28;20411;-69
2021/11/10 04:53:59;;;;;;;3.60;3.30;;;;;;;;;;5043178;28;20741;-69
2021/11/10 04:56:27;;;;;;;5.18;3.60;;;;;;;;;;5044567;28;20879;-69
2021/11/10 04:58:56;;;;;;;3.80;3.40;;;;;;;;;;5049655;28;20901;-69
2021/11/10 05:01:27;;;;;;;4.32;3.92;;;;;;;;;;5057996;28;20385;-69
2021/11/10 05:03:57;;;;;;;4.13;3.67;;;;;;;;;;5046814;28;20953;-69
2021/11/10 05:06:29;;;;;;;4.07;3.63;;;;;;;;;;5037995;28;20399;-69
2021/11/10 05:08:58;;;;;;;4.22;3.78;;;;;;;;;;5046297;28;20401;-69
2021/11/10 05:11:28;;;;;;;4.65;4.22;;;;;;;;;;5066860;28;20405;-69
2021/11/10 05:13:58;;;;;;;4.32;3.92;;;;;;;;;;5072312;28;20405;-70
2021/11/10 05:16:30;;;;;;;4.28;3.78;;;;;;;;;;5070165;28;20392;-69
2021/11/10 05:19:00;;;;;;;4.05;3.65;;;;;;;;;;5061470;28;20396;-69
2021/11/10 05:21:31;;;;;;;4.30;3.90;;;;;;;;;;5068759;28;20432;-70
2021/11/10 05:24:05;;;;;;;4.10;3.70;;;;;;;;;;5071050;28;20397;-69
2021/11/10 05:26:38;;;;;;;3.80;3.33;;;;;;;;;;5066633;28;20714;-69
2021/11/10 05:29:09;;;;;;;3.97;3.58;;;;;;;;;;5069558;28;20394;-69
2021/11/10 05:31:39;;;;;;;4.53;3.63;;;;;;;;;;5073069;28;20432;-70
2021/11/10 05:34:09;;;;;;;4.30;3.50;;;;;;;;;;5066532;28;20413;-69
2021/11/10 05:36:39;;;;;;;4.07;3.67;;;;;;;;;;5070698;28;20392;-69
2021/11/10 05:39:09;;;;;;;4.80;4.13;;;;;;;;;;5069076;28;20475;-69
2021/11/10 05:41:41;;;;;;;3.80;3.50;;;;;;;;;;5072693;28;20444;-69
2021/11/10 05:44:09;;;;;;;3.75;3.45;;;;;;;;;;5068091;28;20400;-69
2021/11/10 05:46:40;;;;;;;4.27;3.87;;;;;;;;;;5060130;28;20432;-69
2021/11/10 05:49:11;;;;;;;3.80;3.50;;;;;;;;;;5050909;28;20413;-69
2021/11/10 05:51:40;;;;;;;4.03;3.70;;;;;;;;;;5068901;28;20478;-69
2021/11/10 05:54:10;;;;;;;4.50;4.10;;;;;;;;;;5066511;28;20422;-69
2021/11/10 05:56:43;;;;;;;4.20;3.80;;;;;;;;;;5066739;28;20392;-69
2021/11/10 05:59:14;;;;;;;5.25;4.75;;;;;;;;;;5073446;28;20406;-69
2021/11/10 06:01:45;;;;;;;3.85;3.33;;;;;;;;;;5060169;28;20540;-70
2021/11/10 06:04:15;;;;;;;5.83;3.90;;;;;;;;;;5068690;28;20398;-70
2021/11/10 06:06:44;;;;;;;4.97;4.50;;;;;;;;;;5069017;28;20398;-69
2021/11/10 06:09:11;;;;;;;4.25;3.85;;;;;;;;;;5027829;28;20403;-69
2021/11/10 06:11:39;;;;;;;4.38;3.90;;;;;;;;;;5052727;28;20422;-69
2021/11/10 06:14:10;;;;;;;6.13;3.88;;;;;;;;;;5058280;28;20399;-69
2021/11/10 06:16:40;;;;;;;5.00;4.15;;;;;;;;;;5052784;28;21297;-69
2021/11/10 06:19:10;;;;;;;4.20;3.80;;;;;;;;;;5049571;28;20399;-70
2021/11/10 06:21:42;;;;;;;4.45;3.80;;;;;;;;;;5049968;28;20988;-69
2021/11/10 06:24:10;;;;;;;4.53;4.10;;;;;;;;;;5049564;28;20384;-69
2021/11/10 06:26:40;;;;;;;5.47;4.55;;;;;;;;;;5047328;28;20970;-69
2021/11/10 06:29:12;;;;;;;4.40;4.00;;;;;;;;;;5045674;28;20407;-69
2021/11/10 06:31:40;;;;;;;4.47;4.05;;;;;;;;;;5059685;28;20908;-69
2021/11/10 06:34:08;;;;;;;7.60;4.78;;;;;;;;;;5052364;28;20418;-69
2021/11/10 06:36:36;;;;;;;4.30;3.90;;;;;;;;;;5063816;28;20394;-69
2021/11/10 06:39:10;;;;;;;4.60;3.90;;;;;;;;;;5049834;28;20384;-69
2021/11/10 06:41:40;;;;;;;5.15;4.20;;;;;;;;;;5044250;28;20447;-69
2021/11/10 06:44:15;;;;;;;4.57;3.80;;;;;;;;;;5034982;28;20406;-69
2021/11/10 06:46:59;;;;;;;4.35;3.83;;;;;;;;;;5057769;28;20492;-71
2021/11/10 06:49:50;;;;;;;5.00;4.10;;;;;;;;;;5047944;28;20430;-71
2021/11/10 06:52:23;;;;;;;5.15;4.10;;;;;;;;;;5040314;28;20479;-69
2021/11/10 06:54:51;;;;;;;5.18;4.60;;;;;;;;;;5047419;28;20399;-70
2021/11/10 06:57:24;;;;;;;4.50;4.00;;;;;;;;;;5026276;28;20386;-71
2021/11/10 06:59:55;;;;;;;4.85;4.20;;;;;;;;;;5043012;28;20383;-71
2021/11/10 07:02:25;;;;;;;4.70;4.23;;;;;;;;;;5027611;28;20414;-71
2021/11/10 07:04:58;;;;;;;5.80;4.18;;;;;;;;;;5046235;28;20391;-72
2021/11/10 07:07:28;;;;;;;4.20;3.80;;;;;;;;;;5042766;28;20407;-70
2021/11/10 07:09:57;;;;;;;4.85;4.15;;;;;;;;;;5041659;28;20436;-70
2021/11/10 07:12:26;;;;;;;5.40;3.72;;;;;;;;;;5022617;28;20401;-70
2021/11/10 07:14:57;;;;;;;4.28;3.50;;;;;;;;;;5044615;28;20388;-71
2021/11/10 07:17:28;;;;;;;4.80;4.07;;;;;;;;;;5043716;28;20837;-69
2021/11/10 07:19:55;;;;;;;4.03;3.63;;;;;;;;;;5046450;28;20439;-71
2021/11/10 07:22:25;;;;;;;4.93;4.00;;;;;;;;;;5037778;28;20405;-69
2021/11/10 07:24:58;;;;;;;4.70;3.90;;;;;;;;;;5059441;28;20394;-70
2021/11/10 07:27:37;;;;;;;4.45;4.05;;;;;;;;;;5058910;28;20398;-70
2021/11/10 07:30:08;;;;;;;4.60;4.20;;;;;;;;;;5049930;28;20399;-70
2021/11/10 07:32:41;;;;;;;4.40;3.95;;;;;;;;;;5054972;28;20980;-70
2021/11/10 07:35:13;;;;;;;8.25;4.80;;;;;;;;;;5041993;28;20392;-70
2021/11/10 07:37:45;;;;;;;15.80;5.75;;;;;;;;;;5032539;28;20382;-71
2021/11/10 07:40:15;;;;;;;19.27;7.22;;;;;;;;;;5027249;28;20427;-69
2021/11/10 07:42:45;;;;;;;24.10;8.48;;;;;;;;;;5042632;28;20872;-67
2021/11/10 07:48:12;;;;;;;19.50;7.30;;;;;;;;;;5034348;28;20402;-69
2021/11/10 07:50:44;;;;;;;15.77;7.20;;;;;;;;;;5033692;28;20431;-71
2021/11/10 07:53:16;;;;;;;15.63;6.10;;;;;;;;;;5045472;28;20943;-67
2021/11/10 07:55:44;;;;;;;15.35;6.10;;;;;;;;;;5046278;28;20388;-69
2021/11/10 07:58:13;;;;;;;13.10;6.00;;;;;;;;;;5044481;28;20399;-69
2021/11/10 08:00:43;;;;;;;12.57;6.23;;;;;;;;;;5042332;28;20724;-70
2021/11/10 08:03:16;;;;;;;13.10;6.00;;;;;;;;;;5047294;28;20388;-68
2021/11/10 08:05:48;;;;;;;10.30;5.38;;;;;;;;;;5048204;28;20863;-68
2021/11/10 08:08:17;;;;;;;9.23;5.07;;;;;;;;;;5052005;28;20405;-69
2021/11/10 08:10:54;;;;;;;9.27;5.53;;;;;;;;;;5057018;28;20405;-72
2021/11/10 08:13:44;;;;;;;10.05;4.70;;;;;;;;;;5066876;28;20854;-70
2021/11/10 08:16:16;;;;;;;10.38;5.38;;;;;;;;;;5068298;28;20831;-70
2021/11/10 08:18:46;;;;;;;7.38;4.72;;;;;;;;;;5061420;28;20407;-72
2021/11/10 08:21:17;;;;;;;8.23;4.63;;;;;;;;;;5044723;28;20405;-71
2021/11/10 08:23:45;;;;;;;8.90;4.60;;;;;;;;;;5067399;28;20402;-70
2021/11/10 08:26:13;;;;;;;7.78;5.00;;;;;;;;;;5066675;28;20993;-71
2021/11/10 08:28:44;;;;;;;7.55;4.57;;;;;;;;;;5052557;28;20400;-72
2021/11/10 08:31:11;;;;;;;7.22;4.60;;;;;;;;;;5068673;28;20712;-69
2021/11/10 08:33:40;;;;;;;7.57;4.50;;;;;;;;;;5064895;28;20388;-67
2021/11/10 08:36:25;;;;;;;6.53;3.90;;;;;;;;;;5049656;28;20449;-69
2021/11/10 08:38:55;;;;;;;6.07;4.10;;;;;;;;;;5065617;28;20406;-70
2021/11/10 08:41:26;;;;;;;6.18;4.05;;;;;;;;;;5067025;28;20972;-69
2021/11/10 08:43:55;;;;;;;5.70;4.25;;;;;;;;;;5064703;28;20398;-67
2021/11/10 08:46:30;;;;;;;6.88;4.63;;;;;;;;;;5057583;28;20473;-67
2021/11/10 08:48:59;;;;;;;7.95;5.10;;;;;;;;;;5068745;28;20833;-69
2021/11/10 08:51:32;;;;;;;6.73;4.37;;;;;;;;;;5069501;28;20739;-68
2021/11/10 08:54:03;;;;;;;5.95;4.30;;;;;;;;;;5067625;28;20406;-68
2021/11/10 08:56:34;;;;;;;5.80;4.40;;;;;;;;;;5039907;28;20408;-69
2021/11/10 08:59:06;;;;;;;5.83;4.37;;;;;;;;;;5068183;28;20855;-69
2021/11/10 09:01:37;;;;;;;5.40;4.60;;;;;;;;;;5074105;28;20378;-68
2021/11/10 09:04:15;;;;;;;5.88;4.07;;;;;;;;;;5072705;28;20503;-70
2021/11/10 09:06:47;;;;;;;6.35;3.92;;;;;;;;;;5072062;28;20402;-69
2021/11/10 09:09:19;;;;;;;5.65;4.05;;;;;;;;;;5058473;28;20408;-69
2021/11/10 09:12:05;;;;;;;5.50;3.95;;;;;;;;;;5064004;28;20446;-69
2021/11/10 09:14:33;;;;;;;4.75;3.70;;;;;;;;;;5076058;28;20413;-71
2021/11/10 09:17:01;;;;;;;6.82;4.40;;;;;;;;;;5081133;28;20473;-70
2021/11/10 09:19:30;;;;;;;6.63;4.05;;;;;;;;;;5083905;28;20453;-69
2021/11/10 09:21:58;;;;;;;5.90;4.45;;;;;;;;;;5070438;28;20406;-70
2021/11/10 09:24:27;;;;;;;5.57;4.20;;;;;;;;;;5075314;28;20402;-72
2021/11/10 09:26:54;;;;;;;4.82;3.80;;;;;;;;;;5074924;28;20394;-69
2021/11/10 09:29:24;;;;;;;5.40;4.50;;;;;;;;;;5066295;28;20409;-69
2021/11/10 09:31:54;;;;;;;4.80;4.13;;;;;;;;;;5069341;28;20401;-68
2021/11/10 09:34:23;;;;;;;4.78;3.80;;;;;;;;;;5060743;28;20391;-69
2021/11/10 09:36:52;;;;;;;4.80;4.03;;;;;;;;;;5069058;28;20385;-69
2021/11/10 09:39:24;;;;;;;4.55;3.80;;;;;;;;;;5067760;28;20737;-70
2021/11/10 09:41:56;;;;;;;6.70;4.20;;;;;;;;;;5068897;28;20444;-69
2021/11/10 09:44:26;;;;;;;6.05;4.38;;;;;;;;;;5066285;28;20695;-70
2021/11/10 09:47:00;;;;;;;5.05;4.15;;;;;;;;;;5064820;28;20396;-70
2021/11/10 09:49:31;;;;;;;7.60;3.88;;;;;;;;;;5061175;28;20454;-69
2021/11/10 09:52:03;;;;;;;4.45;4.03;;;;;;;;;;5051611;28;20774;-70
2021/11/10 09:54:35;;;;;;;5.00;4.40;;;;;;;;;;5066755;28;20430;-69
2021/11/10 09:57:04;;;;;;;6.68;4.28;;;;;;;;;;5063364;28;20496;-72
2021/11/10 09:59:35;;;;;;;4.97;4.20;;;;;;;;;;5070387;28;21390;-69
2021/11/10 10:02:11;;;;;;;4.33;3.53;;;;;;;;;;5060654;28;20412;-70
2021/11/10 10:04:47;;;;;;;6.63;4.67;;;;;;;;;;5059955;28;20424;-70
2021/11/10 10:07:18;;;;;;;5.30;4.73;;;;;;;;;;5076954;28;20380;-70
2021/11/10 10:09:47;;;;;;;5.80;4.65;;;;;;;;;;5072679;28;20396;-70
2021/11/10 10:12:26;;;;;;;6.05;4.72;;;;;;;;;;5065584;28;20409;-70
2021/11/10 10:14:57;;;;;;;6.20;3.95;;;;;;;;;;5070662;28;20394;-67
2021/11/10 10:17:40;;;;;;;5.00;3.65;;;;;;;;;;5069210;28;20389;-67
2021/11/10 10:20:23;;;;;;;6.60;3.80;;;;;;;;;;5063957;28;20413;-70
2021/11/10 10:22:54;;;;;;;4.55;3.58;;;;;;;;;;5067521;28;20394;-69
2021/11/10 10:25:37;;;;;;;5.28;3.50;;;;;;;;;;5068189;28;20382;-67
2021/11/10 10:28:08;;;;;;;7.30;3.35;;;;;;;;;;5069604;28;20394;-69
2021/11/10 10:30:47;;;;;;;5.47;3.47;;;;;;;;;;5031546;28;20394;-70
2021/11/10 10:33:19;;;;;;;4.57;3.38;;;;;;;;;;5067453;28;20425;-69
2021/11/10 10:36:04;;;;;;;4.57;3.20;;;;;;;;;;5076935;28;20386;-68
2021/11/10 10:38:36;;;;;;;3.70;3.00;;;;;;;;;;5069196;28;20721;-69
2021/11/10 10:41:08;;;;;;;4.28;3.13;;;;;;;;;;5075598;28;20382;-69
2021/11/10 10:43:47;;;;;;;4.32;3.42;;;;;;;;;;5050180;28;20463;-70
2021/11/10 10:46:17;;;;;;;3.50;3.10;;;;;;;;;;5069527;28;20487;-69
2021/11/10 10:48:49;;;;;;;3.55;3.08;;;;;;;;;;5066523;28;20378;-69
2021/11/10 10:51:19;;;;;;;3.30;3.00;;;;;;;;;;5068500;28;20397;-69
2021/11/10 10:53:50;;;;;;;5.30;3.20;;;;;;;;;;5062475;28;20393;-68
2021/11/10 10:56:23;;;;;;;3.45;3.15;;;;;;;;;;5054211;28;20398;-68
2021/11/10 10:59:03;;;;;;;3.35;2.97;;;;;;;;;;5069846;28;20750;-68
2021/11/10 11:01:33;;;;;;;4.25;3.05;;;;;;;;;;5064802;28;20392;-70
2021/11/10 11:04:14;;;;;;;3.63;2.80;;;;;;;;;;5051711;28;20390;-69
2021/11/10 11:06:50;;;;;;;3.25;2.80;;;;;;;;;;5063467;28;20394;-71
2021/11/10 11:09:27;;;;;;;3.53;2.80;;;;;;;;;;5044951;28;20414;-71
2021/11/10 11:12:08;;;;;;;3.73;2.93;;;;;;;;;;5059950;28;20411;-69
2021/11/10 11:15:07;;;;;;;6.03;2.95;;;;;;;;;;5062583;28;20406;-70
2021/11/10 11:17:36;;;;;;;3.38;2.95;;;;;;;;;;5066744;28;20402;-69
2021/11/10 11:20:13;;;;;;;3.42;2.80;;;;;;;;;;5066474;28;20390;-69
2021/11/10 11:22:59;;;;;;;4.00;2.88;;;;;;;;;;5065718;28;20477;-70
2021/11/10 11:25:38;;;;;;;3.20;2.80;;;;;;;;;;5066553;28;20750;-69
2021/11/10 11:28:09;;;;;;;3.63;3.10;;;;;;;;;;5062372;28;20425;-69
2021/11/10 11:30:40;;;;;;;4.63;2.80;;;;;;;;;;5061282;28;20396;-70
2021/11/10 11:33:10;;;;;;;3.63;2.63;;;;;;;;;;5062714;28;20406;-69
2021/11/10 11:35:46;;;;;;;3.38;2.90;;;;;;;;;;5067969;28;20878;-69
2021/11/10 11:38:17;;;;;;;3.10;2.80;;;;;;;;;;5047263;28;20435;-71
2021/11/10 11:40:59;;;;;;;3.65;2.90;;;;;;;;;;5063610;28;20409;-70
2021/11/10 11:43:27;;;;;;;5.60;2.80;;;;;;;;;;5068395;28;20401;-69
2021/11/10 11:46:03;;;;;;;3.65;3.05;;;;;;;;;;5049141;28;20406;-69
2021/11/10 11:48:33;;;;;;;3.80;2.83;;;;;;;;;;5061940;28;20417;-69
2021/11/10 11:51:08;;;;;;;3.63;2.70;;;;;;;;;;5066315;28;20865;-69
2021/11/10 11:53:45;;;;;;;3.53;2.85;;;;;;;;;;5065277;28;20429;-69
2021/11/10 11:56:19;;;;;;;6.43;3.88;;;;;;;;;;5067206;28;20469;-70
2021/11/10 11:58:52;;;;;;;5.45;3.63;;;;;;;;;;5064824;28;21067;-70
2021/11/10 12:01:24;;;;;;;4.30;3.10;;;;;;;;;;5064296;28;20402;-69
2021/11/10 12:04:07;;;;;;;3.78;2.85;;;;;;;;;;5063398;28;20475;-68
2021/11/10 12:06:45;;;;;;;3.53;2.80;;;;;;;;;;5043036;28;20427;-71
2021/11/10 12:09:22;;;;;;;3.85;2.80;;;;;;;;;;5071636;28;20412;-70
2021/11/10 12:12:11;;;;;;;5.40;3.20;;;;;;;;;;5068709;28;20408;-69
2021/11/10 12:14:57;;;;;;;3.20;2.90;;;;;;;;;;5060365;28;20400;-69
2021/11/10 12:17:34;;;;;;;5.03;3.28;;;;;;;;;;5085060;28;20404;-70
2021/11/10 12:20:11;;;;;;;6.65;3.47;;;;;;;;;;5086128;28;20412;-70
2021/11/10 12:22:53;;;;;;;4.55;3.20;;;;;;;;;;5083475;28;20407;-70
2021/11/10 12:25:23;;;;;;;4.75;3.10;;;;;;;;;;5090837;28;20398;-68
2021/11/10 12:27:53;;;;;;;5.97;3.50;;;;;;;;;;5090777;28;20971;-70
2021/11/10 12:30:28;;;;;;;5.20;3.53;;;;;;;;;;5087987;28;20394;-68
2021/11/10 12:32:59;;;;;;;4.20;3.35;;;;;;;;;;5079533;28;20408;-70
2021/11/10 12:35:32;;;;;;;3.72;3.22;;;;;;;;;;5085293;28;20434;-69
2021/11/10 12:38:02;;;;;;;5.75;3.20;;;;;;;;;;5091096;28;20407;-70
2021/11/10 12:40:36;;;;;;;4.07;3.27;;;;;;;;;;5071802;28;20745;-69
2021/11/10 12:43:12;;;;;;;3.60;3.20;;;;;;;;;;5080077;28;20390;-69
2021/11/10 12:45:39;;;;;;;3.58;2.97;;;;;;;;;;5074437;28;20456;-69
2021/11/10 12:48:12;;;;;;;4.30;3.15;;;;;;;;;;5075053;28;20386;-68
2021/11/10 12:50:47;;;;;;;4.63;3.33;;;;;;;;;;5080844;28;20860;-70
2021/11/10 12:53:16;;;;;;;5.38;3.15;;;;;;;;;;5087790;28;20404;-70
2021/11/10 12:55:56;;;;;;;3.75;3.10;;;;;;;;;;5090794;28;21046;-69
2021/11/10 12:58:32;;;;;;;3.75;3.33;;;;;;;;;;5073658;28;20486;-70
2021/11/10 13:01:13;;;;;;;3.30;3.00;;;;;;;;;;5089645;28;20415;-68
2021/11/10 13:03:45;;;;;;;4.50;3.05;;;;;;;;;;5093287;28;20396;-69
2021/11/10 13:06:22;;;;;;;4.07;3.17;;;;;;;;;;5089470;28;20793;-68
2021/11/10 13:08:53;;;;;;;4.15;3.22;;;;;;;;;;5087211;28;20941;-70
2021/11/10 13:11:26;;;;;;;3.40;2.97;;;;;;;;;;5091031;28;20423;-68
2021/11/10 13:14:07;;;;;;;3.65;3.00;;;;;;;;;;5073491;28;20398;-69
2021/11/10 13:16:35;;;;;;;4.50;3.22;;;;;;;;;;5082431;28;20405;-69
2021/11/10 13:19:02;;;;;;;3.42;3.00;;;;;;;;;;5091044;28;20394;-69
2021/11/10 13:21:29;;;;;;;3.85;3.25;;;;;;;;;;5067233;28;20380;-68
2021/11/10 13:24:04;;;;;;;4.83;2.80;;;;;;;;;;5092121;28;20477;-70
2021/11/10 13:26:31;;;;;;;4.22;3.17;;;;;;;;;;5085643;28;20392;-72
2021/11/10 13:28:58;;;;;;;3.35;3.05;;;;;;;;;;5074158;28;20403;-71
2021/11/10 13:31:25;;;;;;;4.60;4.10;;;;;;;;;;5091731;28;20857;-67
2021/11/10 13:33:53;;;;;;;7.25;3.85;;;;;;;;;;5088274;28;20407;-72
2021/11/10 13:36:25;;;;;;;4.60;3.25;;;;;;;;;;5087335;28;20402;-70
2021/11/10 13:39:09;;;;;;;7.03;3.40;;;;;;;;;;5089845;28;20400;-69
2021/11/10 13:41:49;;;;;;;5.23;3.00;;;;;;;;;;5090559;28;20396;-71
2021/11/10 13:44:22;;;;;;;4.40;2.97;;;;;;;;;;5089280;28;20390;-70
2021/11/10 13:47:04;;;;;;;3.97;3.50;;;;;;;;;;5092084;28;20475;-70
2021/11/10 13:49:36;;;;;;;4.13;3.10;;;;;;;;;;5072411;28;20390;-69
2021/11/10 13:52:14;;;;;;;3.97;3.25;;;;;;;;;;5088069;28;20424;-70
2021/11/10 13:54:46;;;;;;;4.60;3.58;;;;;;;;;;5087061;28;20391;-71
2021/11/10 13:57:25;;;;;;;4.13;3.30;;;;;;;;;;5085146;28;20399;-73
2021/11/10 14:00:05;;;;;;;4.05;3.20;;;;;;;;;;5090799;28;20431;-69
2021/11/10 14:02:46;;;;;;;4.72;3.22;;;;;;;;;;5084281;28;20392;-70
2021/11/10 14:05:15;;;;;;;5.55;3.58;;;;;;;;;;5066525;28;20404;-70
2021/11/10 14:07:45;;;;;;;3.85;2.88;;;;;;;;;;5081453;28;20389;-70
2021/11/10 14:10:14;;;;;;;3.83;3.03;;;;;;;;;;5063152;28;20414;-70
2021/11/10 14:12:57;;;;;;;5.63;2.80;;;;;;;;;;5066649;28;20926;-70
2021/11/10 14:15:35;;;;;;;5.38;3.20;;;;;;;;;;5068505;28;20769;-70
2021/11/10 14:18:09;;;;;;;3.88;3.00;;;;;;;;;;5050100;28;20379;-71
2021/11/10 14:20:55;;;;;;;3.85;3.00;;;;;;;;;;5057826;28;20472;-71
2021/11/10 14:23:32;;;;;;;4.70;2.90;;;;;;;;;;5045995;28;20412;-69
2021/11/10 14:26:11;;;;;;;4.90;3.20;;;;;;;;;;5049909;28;20411;-69
2021/11/10 14:28:47;;;;;;;4.82;2.90;;;;;;;;;;5061575;28;20390;-70
2021/11/10 14:31:24;;;;;;;4.20;2.90;;;;;;;;;;5049517;28;20395;-70
2021/11/10 14:34:09;;;;;;;3.78;2.75;;;;;;;;;;5056749;28;20499;-70
2021/11/10 14:36:41;;;;;;;3.13;2.75;;;;;;;;;;5048193;28;20477;-69
2021/11/10 14:39:24;;;;;;;3.42;3.13;;;;;;;;;;5065236;28;20583;-69
2021/11/10 14:42:04;;;;;;;6.13;3.33;;;;;;;;;;5048981;28;20418;-68
2021/11/10 14:44:37;;;;;;;4.93;3.00;;;;;;;;;;5060639;28;20854;-68
2021/11/10 14:47:07;;;;;;;5.88;3.47;;;;;;;;;;5062693;28;20410;-69
2021/11/10 14:49:37;;;;;;;4.88;3.25;;;;;;;;;;5063583;28;20398;-71
2021/11/10 14:52:11;;;;;;;4.78;2.80;;;;;;;;;;5065413;28;20885;-70
2021/11/10 14:54:40;;;;;;;5.45;2.97;;;;;;;;;;5054664;28;20403;-71
2021/11/10 14:57:15;;;;;;;3.92;2.95;;;;;;;;;;5057659;28;20886;-70
2021/11/10 14:59:52;;;;;;;4.10;3.08;;;;;;;;;;5056889;28;20406;-70
2021/11/10 15:02:27;;;;;;;3.70;3.20;;;;;;;;;;5061990;28;20551;-69
2021/11/10 15:05:05;;;;;;;3.60;3.07;;;;;;;;;;5063625;28;20428;-70
2021/11/10 15:07:36;;;;;;;4.88;3.47;;;;;;;;;;5066163;28;20400;-71
2021/11/10 15:10:14;;;;;;;3.53;3.22;;;;;;;;;;5060698;28;20916;-71
2021/11/10 15:12:42;;;;;;;4.35;3.13;;;;;;;;;;5067824;28;20751;-69
2021/11/10 15:15:21;;;;;;;4.55;3.20;;;;;;;;;;5070084;28;20862;-70
2021/11/10 15:18:06;;;;;;;3.63;3.33;;;;;;;;;;5068533;28;20405;-70